sensor_id;sensor_type;location;lat;lon;timestamp;P1;durP1;ratioP1;P2;durP2;ratioP2
59161;SDS011;44942;48.936;8.260;2023-01-13T00:01:52;1.60;;;0.80;;
59161;SDS011;44942;48.936;8.260;2023-01-13T00:06:52;1.37;;;0.70;;
59161;SDS011;44942;48.936;8.260;2023-01-13T00:11:53;3.73;;;1.00;;
59161;SDS011;44942;48.936;8.260;2023-01-13T00:16:55;2.85;;;0.90;;
59161;SDS011;44942;48.936;8.260;2023-01-13T00:21:55;1.47;;;0.70;;
59161;SDS011;44942;48.936;8.260;2023-01-13T00:26:56;1.13;;;0.63;;
59161;SDS011;44942;48.936;8.260;2023-01-13T00:31:56;2.70;;;0.80;;
59161;SDS011;44942;48.936;8.260;2023-01-13T00:36:57;1.83;;;0.87;;
59161;SDS011;44942;48.936;8.260;2023-01-13T00:41:58;1.43;;;0.70;;
59161;SDS011;44942;48.936;8.260;2023-01-13T00:47:17;0.90;;;0.47;;
59161;SDS011;44942;48.936;8.260;2023-01-13T00:52:18;1.50;;;0.80;;
59161;SDS011;44942;48.936;8.260;2023-01-13T00:57:18;2.17;;;0.80;;
59161;SDS011;44942;48.936;8.260;2023-01-13T01:02:19;2.03;;;0.60;;
59161;SDS011;44942;48.936;8.260;2023-01-13T01:07:19;1.30;;;0.70;;
59161;SDS011;44942;48.936;8.260;2023-01-13T01:12:20;1.40;;;0.63;;
59161;SDS011;44942;48.936;8.260;2023-01-13T01:17:20;1.43;;;0.67;;
59161;SDS011;44942;48.936;8.260;2023-01-13T01:22:21;1.93;;;0.80;;
59161;SDS011;44942;48.936;8.260;2023-01-13T01:27:21;1.03;;;0.50;;
59161;SDS011;44942;48.936;8.260;2023-01-13T01:32:22;2.00;;;0.60;;
59161;SDS011;44942;48.936;8.260;2023-01-13T01:37:22;1.00;;;0.60;;
59161;SDS011;44942;48.936;8.260;2023-01-13T01:42:23;2.63;;;0.77;;
59161;SDS011;44942;48.936;8.260;2023-01-13T01:47:42;1.67;;;0.57;;
59161;SDS011;44942;48.936;8.260;2023-01-13T01:52:47;1.52;;;0.68;;
59161;SDS011;44942;48.936;8.260;2023-01-13T01:58:04;1.35;;;0.73;;
59161;SDS011;44942;48.936;8.260;2023-01-13T02:03:11;1.17;;;0.80;;
59161;SDS011;44942;48.936;8.260;2023-01-13T02:08:13;2.00;;;0.73;;
59161;SDS011;44942;48.936;8.260;2023-01-13T02:13:14;2.88;;;0.88;;
59161;SDS011;44942;48.936;8.260;2023-01-13T02:29:41;1.95;;;0.88;;
59161;SDS011;44942;48.936;8.260;2023-01-13T02:35:18;1.63;;;0.60;;
59161;SDS011;44942;48.936;8.260;2023-01-13T02:45:35;0.63;;;0.40;;
59161;SDS011;44942;48.936;8.260;2023-01-13T02:50:45;1.95;;;0.75;;
59161;SDS011;44942;48.936;8.260;2023-01-13T02:55:50;2.90;;;0.60;;
59161;SDS011;44942;48.936;8.260;2023-01-13T03:00:53;1.00;;;0.60;;
59161;SDS011;44942;48.936;8.260;2023-01-13T03:11:38;1.40;;;0.63;;
59161;SDS011;44942;48.936;8.260;2023-01-13T03:21:57;0.80;;;0.60;;
59161;SDS011;44942;48.936;8.260;2023-01-13T03:32:18;1.20;;;0.50;;
59161;SDS011;44942;48.936;8.260;2023-01-13T03:37:22;1.85;;;0.70;;
59161;SDS011;44942;48.936;8.260;2023-01-13T03:42:27;2.88;;;0.60;;
59161;SDS011;44942;48.936;8.260;2023-01-13T03:52:42;0.98;;;0.60;;
59161;SDS011;44942;48.936;8.260;2023-01-13T03:57:52;1.73;;;0.40;;
59161;SDS011;44942;48.936;8.260;2023-01-13T04:03:04;1.40;;;0.57;;
59161;SDS011;44942;48.936;8.260;2023-01-13T04:08:15;1.45;;;0.60;;
59161;SDS011;44942;48.936;8.260;2023-01-13T04:13:21;1.42;;;0.68;;
59161;SDS011;44942;48.936;8.260;2023-01-13T04:18:29;1.50;;;0.60;;
59161;SDS011;44942;48.936;8.260;2023-01-13T04:23:29;1.13;;;0.60;;
59161;SDS011;44942;48.936;8.260;2023-01-13T04:28:31;1.75;;;0.50;;
59161;SDS011;44942;48.936;8.260;2023-01-13T04:33:34;1.83;;;0.60;;
59161;SDS011;44942;48.936;8.260;2023-01-13T04:38:34;1.40;;;0.65;;
59161;SDS011;44942;48.936;8.260;2023-01-13T04:43:35;0.87;;;0.40;;
59161;SDS011;44942;48.936;8.260;2023-01-13T04:48:36;1.33;;;0.60;;
59161;SDS011;44942;48.936;8.260;2023-01-13T04:53:36;1.00;;;0.53;;
59161;SDS011;44942;48.936;8.260;2023-01-13T04:58:37;3.20;;;0.70;;
59161;SDS011;44942;48.936;8.260;2023-01-13T05:03:37;3.83;;;0.70;;
59161;SDS011;44942;48.936;8.260;2023-01-13T05:08:38;1.33;;;0.47;;
59161;SDS011;44942;48.936;8.260;2023-01-13T05:13:38;1.23;;;0.57;;
59161;SDS011;44942;48.936;8.260;2023-01-13T05:18:58;0.95;;;0.50;;
59161;SDS011;44942;48.936;8.260;2023-01-13T05:23:58;0.70;;;0.40;;
59161;SDS011;44942;48.936;8.260;2023-01-13T05:29:17;1.13;;;0.60;;
59161;SDS011;44942;48.936;8.260;2023-01-13T05:34:18;0.80;;;0.50;;
59161;SDS011;44942;48.936;8.260;2023-01-13T05:39:18;1.93;;;0.87;;
59161;SDS011;44942;48.936;8.260;2023-01-13T05:44:19;1.13;;;0.70;;
59161;SDS011;44942;48.936;8.260;2023-01-13T05:49:19;1.70;;;0.60;;
59161;SDS011;44942;48.936;8.260;2023-01-13T05:54:20;1.80;;;0.50;;
59161;SDS011;44942;48.936;8.260;2023-01-13T05:59:20;0.77;;;0.50;;
59161;SDS011;44942;48.936;8.260;2023-01-13T06:04:21;1.00;;;0.50;;
59161;SDS011;44942;48.936;8.260;2023-01-13T06:09:21;3.37;;;0.80;;
59161;SDS011;44942;48.936;8.260;2023-01-13T06:14:22;2.00;;;0.70;;
59161;SDS011;44942;48.936;8.260;2023-01-13T06:19:23;1.53;;;0.60;;
59161;SDS011;44942;48.936;8.260;2023-01-13T06:24:23;2.33;;;0.67;;
59161;SDS011;44942;48.936;8.260;2023-01-13T06:29:24;1.70;;;0.82;;
59161;SDS011;44942;48.936;8.260;2023-01-13T06:34:24;1.10;;;0.57;;
59161;SDS011;44942;48.936;8.260;2023-01-13T06:39:25;1.67;;;0.70;;
59161;SDS011;44942;48.936;8.260;2023-01-13T06:44:30;1.60;;;0.70;;
59161;SDS011;44942;48.936;8.260;2023-01-13T06:49:33;1.95;;;0.80;;
59161;SDS011;44942;48.936;8.260;2023-01-13T06:54:33;1.17;;;0.60;;
59161;SDS011;44942;48.936;8.260;2023-01-13T06:59:34;2.97;;;0.53;;
59161;SDS011;44942;48.936;8.260;2023-01-13T07:04:34;5.10;;;0.90;;
59161;SDS011;44942;48.936;8.260;2023-01-13T07:09:35;5.13;;;0.60;;
59161;SDS011;44942;48.936;8.260;2023-01-13T07:14:36;2.30;;;0.70;;
59161;SDS011;44942;48.936;8.260;2023-01-13T07:19:55;2.28;;;0.60;;
59161;SDS011;44942;48.936;8.260;2023-01-13T07:24:56;1.88;;;0.70;;
59161;SDS011;44942;48.936;8.260;2023-01-13T07:29:57;1.50;;;0.60;;
59161;SDS011;44942;48.936;8.260;2023-01-13T07:34:58;0.70;;;0.60;;
59161;SDS011;44942;48.936;8.260;2023-01-13T07:40:04;2.38;;;0.65;;
59161;SDS011;44942;48.936;8.260;2023-01-13T07:50:07;1.40;;;0.70;;
59161;SDS011;44942;48.936;8.260;2023-01-13T07:55:08;2.45;;;0.50;;
59161;SDS011;44942;48.936;8.260;2023-01-13T08:00:09;0.50;;;0.50;;
59161;SDS011;44942;48.936;8.260;2023-01-13T08:05:10;2.05;;;0.60;;
59161;SDS011;44942;48.936;8.260;2023-01-13T08:10:10;0.70;;;0.60;;
59161;SDS011;44942;48.936;8.260;2023-01-13T08:15:11;0.80;;;0.70;;
59161;SDS011;44942;48.936;8.260;2023-01-13T08:20:11;1.97;;;0.57;;
59161;SDS011;44942;48.936;8.260;2023-01-13T08:25:12;1.00;;;0.60;;
59161;SDS011;44942;48.936;8.260;2023-01-13T08:30:13;3.40;;;0.60;;
59161;SDS011;44942;48.936;8.260;2023-01-13T08:35:13;1.33;;;0.60;;
59161;SDS011;44942;48.936;8.260;2023-01-13T08:40:16;0.88;;;0.40;;
59161;SDS011;44942;48.936;8.260;2023-01-13T08:45:19;1.38;;;0.60;;
59161;SDS011;44942;48.936;8.260;2023-01-13T08:50:20;1.47;;;0.60;;
59161;SDS011;44942;48.936;8.260;2023-01-13T08:55:20;1.00;;;0.60;;
59161;SDS011;44942;48.936;8.260;2023-01-13T09:00:21;1.43;;;0.60;;
59161;SDS011;44942;48.936;8.260;2023-01-13T09:05:22;0.70;;;0.67;;
59161;SDS011;44942;48.936;8.260;2023-01-13T09:10:22;1.93;;;0.73;;
59161;SDS011;44942;48.936;8.260;2023-01-13T09:15:23;1.77;;;0.73;;
59161;SDS011;44942;48.936;8.260;2023-01-13T09:20:23;1.70;;;0.80;;
59161;SDS011;44942;48.936;8.260;2023-01-13T09:25:24;2.77;;;0.70;;
59161;SDS011;44942;48.936;8.260;2023-01-13T09:30:24;1.37;;;0.73;;
59161;SDS011;44942;48.936;8.260;2023-01-13T09:35:25;1.57;;;0.60;;
59161;SDS011;44942;48.936;8.260;2023-01-13T09:40:26;2.03;;;0.70;;
59161;SDS011;44942;48.936;8.260;2023-01-13T09:45:28;1.70;;;0.50;;
59161;SDS011;44942;48.936;8.260;2023-01-13T09:50:51;3.63;;;0.70;;
59161;SDS011;44942;48.936;8.260;2023-01-13T09:56:09;2.00;;;0.70;;
59161;SDS011;44942;48.936;8.260;2023-01-13T10:11:23;2.13;;;0.70;;
59161;SDS011;44942;48.936;8.260;2023-01-13T10:16:51;1.10;;;0.70;;
59161;SDS011;44942;48.936;8.260;2023-01-13T10:27:28;1.73;;;0.70;;
59161;SDS011;44942;48.936;8.260;2023-01-13T10:32:34;2.70;;;0.60;;
59161;SDS011;44942;48.936;8.260;2023-01-13T10:37:34;2.57;;;0.90;;
59161;SDS011;44942;48.936;8.260;2023-01-13T10:42:35;3.50;;;0.80;;
59161;SDS011;44942;48.936;8.260;2023-01-13T10:47:35;3.13;;;0.97;;
59161;SDS011;44942;48.936;8.260;2023-01-13T10:52:37;1.37;;;0.73;;
59161;SDS011;44942;48.936;8.260;2023-01-13T10:57:41;1.80;;;0.70;;
59161;SDS011;44942;48.936;8.260;2023-01-13T11:02:42;2.07;;;0.80;;
59161;SDS011;44942;48.936;8.260;2023-01-13T11:07:49;3.87;;;1.00;;
59161;SDS011;44942;48.936;8.260;2023-01-13T11:13:06;2.97;;;0.88;;
59161;SDS011;44942;48.936;8.260;2023-01-13T11:18:25;2.17;;;0.80;;
59161;SDS011;44942;48.936;8.260;2023-01-13T11:23:42;3.28;;;0.80;;
59161;SDS011;44942;48.936;8.260;2023-01-13T11:29:03;1.45;;;0.70;;
59161;SDS011;44942;48.936;8.260;2023-01-13T11:34:31;2.22;;;0.82;;
59161;SDS011;44942;48.936;8.260;2023-01-13T11:39:50;1.50;;;0.90;;
59161;SDS011;44942;48.936;8.260;2023-01-13T11:50:33;2.13;;;0.80;;
59161;SDS011;44942;48.936;8.260;2023-01-13T12:06:47;2.92;;;1.58;;
59161;SDS011;44942;48.936;8.260;2023-01-13T12:12:02;3.97;;;1.75;;
59161;SDS011;44942;48.936;8.260;2023-01-13T12:23:00;6.55;;;3.25;;
59161;SDS011;44942;48.936;8.260;2023-01-13T12:28:09;5.78;;;2.08;;
59161;SDS011;44942;48.936;8.260;2023-01-13T12:38:36;5.80;;;1.70;;
59161;SDS011;44942;48.936;8.260;2023-01-13T12:43:46;4.65;;;1.77;;
59161;SDS011;44942;48.936;8.260;2023-01-13T12:49:11;4.13;;;1.63;;
59161;SDS011;44942;48.936;8.260;2023-01-13T12:59:38;3.58;;;1.60;;
59161;SDS011;44942;48.936;8.260;2023-01-13T13:04:46;3.43;;;1.40;;
59161;SDS011;44942;48.936;8.260;2023-01-13T13:09:51;4.72;;;1.27;;
59161;SDS011;44942;48.936;8.260;2023-01-13T13:15:16;3.65;;;1.50;;
59161;SDS011;44942;48.936;8.260;2023-01-13T13:31:20;3.47;;;1.30;;
59161;SDS011;44942;48.936;8.260;2023-01-13T13:42:23;2.90;;;1.48;;
59161;SDS011;44942;48.936;8.260;2023-01-13T13:47:55;3.38;;;1.40;;
59161;SDS011;44942;48.936;8.260;2023-01-13T13:53:00;17.07;;;1.47;;
59161;SDS011;44942;48.936;8.260;2023-01-13T13:58:11;4.15;;;1.52;;
59161;SDS011;44942;48.936;8.260;2023-01-13T14:08:35;6.35;;;1.40;;
59161;SDS011;44942;48.936;8.260;2023-01-13T14:13:37;2.72;;;1.20;;
59161;SDS011;44942;48.936;8.260;2023-01-13T14:18:43;5.20;;;1.40;;
59161;SDS011;44942;48.936;8.260;2023-01-13T14:24:12;6.25;;;1.25;;
59161;SDS011;44942;48.936;8.260;2023-01-13T14:29:21;4.57;;;1.40;;
59161;SDS011;44942;48.936;8.260;2023-01-13T14:34:23;3.90;;;1.20;;
59161;SDS011;44942;48.936;8.260;2023-01-13T14:39:34;3.08;;;1.35;;
59161;SDS011;44942;48.936;8.260;2023-01-13T14:44:42;2.80;;;1.15;;
59161;SDS011;44942;48.936;8.260;2023-01-13T14:49:56;3.75;;;1.20;;
59161;SDS011;44942;48.936;8.260;2023-01-13T14:55:19;3.78;;;1.23;;
59161;SDS011;44942;48.936;8.260;2023-01-13T15:00:24;6.78;;;1.20;;
59161;SDS011;44942;48.936;8.260;2023-01-13T15:10:27;3.93;;;1.17;;
59161;SDS011;44942;48.936;8.260;2023-01-13T15:15:34;4.43;;;1.30;;
59161;SDS011;44942;48.936;8.260;2023-01-13T15:20:37;4.18;;;1.15;;
59161;SDS011;44942;48.936;8.260;2023-01-13T15:25:39;6.60;;;1.23;;
59161;SDS011;44942;48.936;8.260;2023-01-13T15:30:41;2.20;;;1.05;;
59161;SDS011;44942;48.936;8.260;2023-01-13T15:35:46;4.57;;;1.20;;
59161;SDS011;44942;48.936;8.260;2023-01-13T15:40:49;10.50;;;5.03;;
59161;SDS011;44942;48.936;8.260;2023-01-13T15:45:51;16.70;;;7.88;;
59161;SDS011;44942;48.936;8.260;2023-01-13T15:51:10;45.65;;;20.02;;
59161;SDS011;44942;48.936;8.260;2023-01-13T15:56:13;75.45;;;35.03;;
59161;SDS011;44942;48.936;8.260;2023-01-13T16:01:21;72.40;;;38.53;;
59161;SDS011;44942;48.936;8.260;2023-01-13T16:06:28;75.25;;;36.22;;
59161;SDS011;44942;48.936;8.260;2023-01-13T16:11:35;64.32;;;32.83;;
59161;SDS011;44942;48.936;8.260;2023-01-13T16:16:35;56.00;;;27.50;;
59161;SDS011;44942;48.936;8.260;2023-01-13T16:21:36;50.40;;;23.52;;
59161;SDS011;44942;48.936;8.260;2023-01-13T16:26:37;47.90;;;23.05;;
59161;SDS011;44942;48.936;8.260;2023-01-13T16:31:38;36.13;;;19.60;;
59161;SDS011;44942;48.936;8.260;2023-01-13T16:36:40;39.47;;;17.55;;
59161;SDS011;44942;48.936;8.260;2023-01-13T16:41:40;32.87;;;15.70;;
59161;SDS011;44942;48.936;8.260;2023-01-13T16:46:41;30.80;;;14.63;;
59161;SDS011;44942;48.936;8.260;2023-01-13T16:51:44;21.10;;;11.60;;
59161;SDS011;44942;48.936;8.260;2023-01-13T16:56:44;23.67;;;11.60;;
59161;SDS011;44942;48.936;8.260;2023-01-13T17:01:45;22.83;;;11.07;;
59161;SDS011;44942;48.936;8.260;2023-01-13T17:06:59;19.50;;;10.00;;
59161;SDS011;44942;48.936;8.260;2023-01-13T17:12:03;19.75;;;9.85;;
59161;SDS011;44942;48.936;8.260;2023-01-13T17:17:04;19.20;;;9.27;;
59161;SDS011;44942;48.936;8.260;2023-01-13T17:22:04;14.87;;;7.50;;
59161;SDS011;44942;48.936;8.260;2023-01-13T17:27:05;15.80;;;7.30;;
59161;SDS011;44942;48.936;8.260;2023-01-13T17:32:06;14.57;;;7.90;;
59161;SDS011;44942;48.936;8.260;2023-01-13T17:37:06;13.17;;;7.07;;
59161;SDS011;44942;48.936;8.260;2023-01-13T17:42:08;12.60;;;6.43;;
59161;SDS011;44942;48.936;8.260;2023-01-13T17:47:09;12.50;;;6.30;;
59161;SDS011;44942;48.936;8.260;2023-01-13T17:52:10;13.47;;;5.07;;
59161;SDS011;44942;48.936;8.260;2023-01-13T17:57:11;10.37;;;4.77;;
59161;SDS011;44942;48.936;8.260;2023-01-13T18:02:11;11.00;;;4.93;;
59161;SDS011;44942;48.936;8.260;2023-01-13T18:07:12;10.52;;;4.65;;
59161;SDS011;44942;48.936;8.260;2023-01-13T18:12:13;10.70;;;5.27;;
59161;SDS011;44942;48.936;8.260;2023-01-13T18:17:13;13.10;;;7.07;;
59161;SDS011;44942;48.936;8.260;2023-01-13T18:22:14;12.48;;;6.38;;
59161;SDS011;44942;48.936;8.260;2023-01-13T18:27:34;11.95;;;8.35;;
59161;SDS011;44942;48.936;8.260;2023-01-13T18:32:37;9.73;;;6.80;;
59161;SDS011;44942;48.936;8.260;2023-01-13T18:37:38;9.27;;;6.00;;
59161;SDS011;44942;48.936;8.260;2023-01-13T18:42:41;9.63;;;5.15;;
59161;SDS011;44942;48.936;8.260;2023-01-13T18:47:51;7.43;;;3.97;;
59161;SDS011;44942;48.936;8.260;2023-01-13T18:52:52;7.38;;;3.83;;
59161;SDS011;44942;48.936;8.260;2023-01-13T18:57:53;8.17;;;3.97;;
59161;SDS011;44942;48.936;8.260;2023-01-13T19:02:56;7.60;;;4.00;;
59161;SDS011;44942;48.936;8.260;2023-01-13T19:08:03;5.30;;;3.42;;
59161;SDS011;44942;48.936;8.260;2023-01-13T19:13:04;6.13;;;3.10;;
59161;SDS011;44942;48.936;8.260;2023-01-13T19:18:04;8.67;;;3.00;;
59161;SDS011;44942;48.936;8.260;2023-01-13T19:23:05;4.47;;;2.80;;
59161;SDS011;44942;48.936;8.260;2023-01-13T19:28:05;5.77;;;3.20;;
59161;SDS011;44942;48.936;8.260;2023-01-13T19:33:06;5.23;;;2.70;;
59161;SDS011;44942;48.936;8.260;2023-01-13T19:38:06;4.70;;;2.83;;
59161;SDS011;44942;48.936;8.260;2023-01-13T19:43:07;5.87;;;2.73;;
59161;SDS011;44942;48.936;8.260;2023-01-13T19:48:27;5.30;;;2.90;;
59161;SDS011;44942;48.936;8.260;2023-01-13T19:53:28;4.30;;;2.70;;
59161;SDS011;44942;48.936;8.260;2023-01-13T19:58:29;5.80;;;2.70;;
59161;SDS011;44942;48.936;8.260;2023-01-13T20:03:30;5.07;;;2.30;;
59161;SDS011;44942;48.936;8.260;2023-01-13T20:08:35;6.13;;;2.40;;
59161;SDS011;44942;48.936;8.260;2023-01-13T20:13:36;21.95;;;2.97;;
59161;SDS011;44942;48.936;8.260;2023-01-13T20:18:36;7.13;;;2.73;;
59161;SDS011;44942;48.936;8.260;2023-01-13T20:23:37;8.70;;;4.40;;
59161;SDS011;44942;48.936;8.260;2023-01-13T20:28:40;7.20;;;3.23;;
59161;SDS011;44942;48.936;8.260;2023-01-13T20:33:41;9.63;;;4.65;;
59161;SDS011;44942;48.936;8.260;2023-01-13T20:38:41;7.80;;;3.10;;
59161;SDS011;44942;48.936;8.260;2023-01-13T20:43:42;6.23;;;2.93;;
59161;SDS011;44942;48.936;8.260;2023-01-13T20:48:43;8.67;;;4.07;;
59161;SDS011;44942;48.936;8.260;2023-01-13T20:53:43;6.13;;;3.33;;
59161;SDS011;44942;48.936;8.260;2023-01-13T20:58:44;5.30;;;2.67;;
59161;SDS011;44942;48.936;8.260;2023-01-13T21:03:45;7.07;;;2.97;;
59161;SDS011;44942;48.936;8.260;2023-01-13T21:08:46;7.67;;;3.10;;
59161;SDS011;44942;48.936;8.260;2023-01-13T21:13:46;8.00;;;3.50;;
59161;SDS011;44942;48.936;8.260;2023-01-13T21:19:05;9.18;;;3.70;;
59161;SDS011;44942;48.936;8.260;2023-01-13T21:24:06;5.77;;;2.93;;
59161;SDS011;44942;48.936;8.260;2023-01-13T21:29:07;7.23;;;4.00;;
59161;SDS011;44942;48.936;8.260;2023-01-13T21:34:08;8.67;;;3.20;;
59161;SDS011;44942;48.936;8.260;2023-01-13T21:39:09;5.82;;;2.78;;
59161;SDS011;44942;48.936;8.260;2023-01-13T21:44:15;7.40;;;2.78;;
59161;SDS011;44942;48.936;8.260;2023-01-13T21:49:35;6.40;;;2.35;;
59161;SDS011;44942;48.936;8.260;2023-01-13T21:54:42;6.70;;;2.38;;
59161;SDS011;44942;48.936;8.260;2023-01-13T22:00:02;7.82;;;3.00;;
59161;SDS011;44942;48.936;8.260;2023-01-13T22:05:04;8.60;;;2.85;;
59161;SDS011;44942;48.936;8.260;2023-01-13T22:10:23;6.03;;;2.72;;
59161;SDS011;44942;48.936;8.260;2023-01-13T22:15:25;6.50;;;2.83;;
59161;SDS011;44942;48.936;8.260;2023-01-13T22:20:28;5.32;;;2.28;;
59161;SDS011;44942;48.936;8.260;2023-01-13T22:25:28;5.20;;;2.20;;
59161;SDS011;44942;48.936;8.260;2023-01-13T22:30:29;7.17;;;2.77;;
59161;SDS011;44942;48.936;8.260;2023-01-13T22:35:31;7.45;;;2.60;;
59161;SDS011;44942;48.936;8.260;2023-01-13T22:40:31;5.47;;;2.47;;
59161;SDS011;44942;48.936;8.260;2023-01-13T22:45:32;5.87;;;2.60;;
59161;SDS011;44942;48.936;8.260;2023-01-13T22:50:33;6.20;;;2.07;;
59161;SDS011;44942;48.936;8.260;2023-01-13T22:55:33;6.07;;;2.13;;
59161;SDS011;44942;48.936;8.260;2023-01-13T23:00:34;5.87;;;2.13;;
59161;SDS011;44942;48.936;8.260;2023-01-13T23:05:34;6.07;;;2.40;;
59161;SDS011;44942;48.936;8.260;2023-01-13T23:10:36;5.70;;;2.30;;
59161;SDS011;44942;48.936;8.260;2023-01-13T23:15:36;5.20;;;2.03;;
59161;SDS011;44942;48.936;8.260;2023-01-13T23:20:37;6.30;;;2.40;;
59161;SDS011;44942;48.936;8.260;2023-01-13T23:25:37;5.43;;;2.30;;
59161;SDS011;44942;48.936;8.260;2023-01-13T23:30:38;5.70;;;2.20;;
59161;SDS011;44942;48.936;8.260;2023-01-13T23:35:39;7.33;;;2.13;;
59161;SDS011;44942;48.936;8.260;2023-01-13T23:40:39;5.87;;;1.83;;
59161;SDS011;44942;48.936;8.260;2023-01-13T23:45:40;6.93;;;2.00;;
59161;SDS011;44942;48.936;8.260;2023-01-13T23:50:40;6.43;;;1.97;;
59161;SDS011;44942;48.936;8.260;2023-01-13T23:55:41;6.57;;;2.53;;
